sensor_id;sensor_type;location;lat;lon;timestamp;P1;durP1;ratioP1;P2;durP2;ratioP2
18190;SDS011;47004;51.366;12.348;2023-10-08T00:01:16;8.40;;;3.17;;
18190;SDS011;47004;51.366;12.348;2023-10-08T00:03:18;8.57;;;3.47;;
18190;SDS011;47004;51.366;12.348;2023-10-08T00:05:20;8.23;;;3.57;;
18190;SDS011;47004;51.366;12.348;2023-10-08T00:07:22;8.77;;;3.73;;
18190;SDS011;47004;51.366;12.348;2023-10-08T00:09:25;8.60;;;3.70;;
18190;SDS011;47004;51.366;12.348;2023-10-08T00:11:36;9.43;;;3.73;;
18190;SDS011;47004;51.366;12.348;2023-10-08T00:13:39;16.50;;;3.87;;
18190;SDS011;47004;51.366;12.348;2023-10-08T00:15:40;8.70;;;3.63;;
18190;SDS011;47004;51.366;12.348;2023-10-08T00:17:50;7.40;;;3.53;;
18190;SDS011;47004;51.366;12.348;2023-10-08T00:19:54;7.93;;;3.57;;
18190;SDS011;47004;51.366;12.348;2023-10-08T00:22:00;7.87;;;3.87;;
18190;SDS011;47004;51.366;12.348;2023-10-08T00:24:06;10.03;;;3.97;;
18190;SDS011;47004;51.366;12.348;2023-10-08T00:26:09;11.63;;;4.30;;
18190;SDS011;47004;51.366;12.348;2023-10-08T00:28:11;10.90;;;4.50;;
18190;SDS011;47004;51.366;12.348;2023-10-08T00:30:13;9.67;;;4.17;;
18190;SDS011;47004;51.366;12.348;2023-10-08T00:32:18;12.10;;;4.37;;
18190;SDS011;47004;51.366;12.348;2023-10-08T00:34:22;9.13;;;4.23;;
18190;SDS011;47004;51.366;12.348;2023-10-08T00:36:27;10.00;;;4.37;;
18190;SDS011;47004;51.366;12.348;2023-10-08T00:38:30;9.83;;;3.83;;
18190;SDS011;47004;51.366;12.348;2023-10-08T00:40:35;9.33;;;4.03;;
18190;SDS011;47004;51.366;12.348;2023-10-08T00:42:38;11.33;;;4.73;;
18190;SDS011;47004;51.366;12.348;2023-10-08T00:44:46;11.13;;;4.50;;
18190;SDS011;47004;51.366;12.348;2023-10-08T00:46:51;9.33;;;4.43;;
18190;SDS011;47004;51.366;12.348;2023-10-08T00:48:55;9.33;;;4.27;;
18190;SDS011;47004;51.366;12.348;2023-10-08T00:50:57;10.77;;;4.27;;
18190;SDS011;47004;51.366;12.348;2023-10-08T00:53:16;9.17;;;4.50;;
18190;SDS011;47004;51.366;12.348;2023-10-08T00:55:21;11.33;;;4.40;;
18190;SDS011;47004;51.366;12.348;2023-10-08T00:57:28;7.40;;;4.70;;
18190;SDS011;47004;51.366;12.348;2023-10-08T00:59:35;11.97;;;4.40;;
18190;SDS011;47004;51.366;12.348;2023-10-08T01:01:46;10.43;;;4.80;;
18190;SDS011;47004;51.366;12.348;2023-10-08T01:03:59;13.60;;;4.77;;
18190;SDS011;47004;51.366;12.348;2023-10-08T01:06:03;12.03;;;4.87;;
18190;SDS011;47004;51.366;12.348;2023-10-08T01:08:10;11.83;;;4.43;;
18190;SDS011;47004;51.366;12.348;2023-10-08T01:10:15;8.23;;;4.97;;
18190;SDS011;47004;51.366;12.348;2023-10-08T01:12:20;9.10;;;4.23;;
18190;SDS011;47004;51.366;12.348;2023-10-08T01:14:26;13.77;;;4.93;;
18190;SDS011;47004;51.366;12.348;2023-10-08T01:16:33;11.17;;;4.20;;
18190;SDS011;47004;51.366;12.348;2023-10-08T01:18:36;9.67;;;4.73;;
18190;SDS011;47004;51.366;12.348;2023-10-08T01:20:43;8.13;;;3.80;;
18190;SDS011;47004;51.366;12.348;2023-10-08T01:22:54;9.07;;;3.90;;
18190;SDS011;47004;51.366;12.348;2023-10-08T01:24:57;9.23;;;3.63;;
18190;SDS011;47004;51.366;12.348;2023-10-08T01:27:01;12.00;;;3.77;;
18190;SDS011;47004;51.366;12.348;2023-10-08T01:29:09;8.53;;;3.30;;
18190;SDS011;47004;51.366;12.348;2023-10-08T01:31:19;6.13;;;3.30;;
18190;SDS011;47004;51.366;12.348;2023-10-08T01:33:21;6.53;;;2.70;;
18190;SDS011;47004;51.366;12.348;2023-10-08T01:35:27;5.60;;;2.73;;
18190;SDS011;47004;51.366;12.348;2023-10-08T01:37:31;3.53;;;2.30;;
18190;SDS011;47004;51.366;12.348;2023-10-08T01:39:37;5.93;;;2.10;;
18190;SDS011;47004;51.366;12.348;2023-10-08T01:41:43;5.17;;;1.53;;
18190;SDS011;47004;51.366;12.348;2023-10-08T01:43:46;1.90;;;1.20;;
18190;SDS011;47004;51.366;12.348;2023-10-08T01:45:47;3.53;;;1.03;;
18190;SDS011;47004;51.366;12.348;2023-10-08T01:47:51;0.70;;;0.70;;
18190;SDS011;47004;51.366;12.348;2023-10-08T01:49:55;0.53;;;0.50;;
18190;SDS011;47004;51.366;12.348;2023-10-08T01:52:06;0.27;;;0.27;;
18190;SDS011;47004;51.366;12.348;2023-10-08T01:54:14;0.13;;;0.13;;
18190;SDS011;47004;51.366;12.348;2023-10-08T01:56:19;0.20;;;0.20;;
18190;SDS011;47004;51.366;12.348;2023-10-08T01:58:23;0.10;;;0.10;;
18190;SDS011;47004;51.366;12.348;2023-10-08T02:00:27;0.77;;;0.10;;
18190;SDS011;47004;51.366;12.348;2023-10-08T02:02:29;0.10;;;0.10;;
18190;SDS011;47004;51.366;12.348;2023-10-08T02:04:32;0.50;;;0.17;;
18190;SDS011;47004;51.366;12.348;2023-10-08T02:06:35;0.20;;;0.10;;
18190;SDS011;47004;51.366;12.348;2023-10-08T02:08:36;0.00;;;0.00;;
18190;SDS011;47004;51.366;12.348;2023-10-08T02:10:38;0.10;;;0.10;;
18190;SDS011;47004;51.366;12.348;2023-10-08T02:12:44;0.00;;;0.00;;
18190;SDS011;47004;51.366;12.348;2023-10-08T02:14:46;0.10;;;0.10;;
18190;SDS011;47004;51.366;12.348;2023-10-08T02:16:49;0.10;;;0.10;;
18190;SDS011;47004;51.366;12.348;2023-10-08T02:18:56;0.10;;;0.10;;
18190;SDS011;47004;51.366;12.348;2023-10-08T02:20:58;0.03;;;0.03;;
18190;SDS011;47004;51.366;12.348;2023-10-08T02:23:00;0.30;;;0.10;;
18190;SDS011;47004;51.366;12.348;2023-10-08T02:25:02;0.10;;;0.10;;
18190;SDS011;47004;51.366;12.348;2023-10-08T02:27:05;0.10;;;0.10;;
18190;SDS011;47004;51.366;12.348;2023-10-08T02:29:09;0.10;;;0.10;;
18190;SDS011;47004;51.366;12.348;2023-10-08T02:31:11;0.97;;;0.10;;
18190;SDS011;47004;51.366;12.348;2023-10-08T02:33:14;0.20;;;0.20;;
18190;SDS011;47004;51.366;12.348;2023-10-08T02:35:17;0.20;;;0.20;;
18190;SDS011;47004;51.366;12.348;2023-10-08T02:37:19;0.10;;;0.10;;
18190;SDS011;47004;51.366;12.348;2023-10-08T02:39:21;0.50;;;0.20;;
18190;SDS011;47004;51.366;12.348;2023-10-08T02:41:25;0.20;;;0.20;;
18190;SDS011;47004;51.366;12.348;2023-10-08T02:43:29;0.17;;;0.17;;
18190;SDS011;47004;51.366;12.348;2023-10-08T02:45:32;0.50;;;0.23;;
18190;SDS011;47004;51.366;12.348;2023-10-08T02:47:38;0.60;;;0.30;;
18190;SDS011;47004;51.366;12.348;2023-10-08T02:49:40;0.37;;;0.37;;
18190;SDS011;47004;51.366;12.348;2023-10-08T02:51:42;0.53;;;0.53;;
18190;SDS011;47004;51.366;12.348;2023-10-08T02:53:45;0.30;;;0.30;;
18190;SDS011;47004;51.366;12.348;2023-10-08T02:55:46;0.30;;;0.30;;
18190;SDS011;47004;51.366;12.348;2023-10-08T02:57:49;0.37;;;0.37;;
18190;SDS011;47004;51.366;12.348;2023-10-08T02:59:50;1.93;;;0.50;;
18190;SDS011;47004;51.366;12.348;2023-10-08T03:01:55;0.43;;;0.40;;
18190;SDS011;47004;51.366;12.348;2023-10-08T03:03:57;0.50;;;0.50;;
18190;SDS011;47004;51.366;12.348;2023-10-08T03:06:14;0.30;;;0.30;;
18190;SDS011;47004;51.366;12.348;2023-10-08T03:08:19;0.50;;;0.20;;
18190;SDS011;47004;51.366;12.348;2023-10-08T03:10:21;0.20;;;0.20;;
18190;SDS011;47004;51.366;12.348;2023-10-08T03:12:23;0.10;;;0.10;;
18190;SDS011;47004;51.366;12.348;2023-10-08T03:14:25;0.10;;;0.10;;
18190;SDS011;47004;51.366;12.348;2023-10-08T03:16:27;0.30;;;0.20;;
18190;SDS011;47004;51.366;12.348;2023-10-08T03:18:36;0.10;;;0.10;;
18190;SDS011;47004;51.366;12.348;2023-10-08T03:20:43;0.27;;;0.17;;
18190;SDS011;47004;51.366;12.348;2023-10-08T03:22:44;0.00;;;0.00;;
18190;SDS011;47004;51.366;12.348;2023-10-08T03:24:46;0.10;;;0.10;;
18190;SDS011;47004;51.366;12.348;2023-10-08T03:26:49;1.13;;;0.10;;
18190;SDS011;47004;51.366;12.348;2023-10-08T03:28:55;0.10;;;0.10;;
18190;SDS011;47004;51.366;12.348;2023-10-08T03:30:58;0.10;;;0.10;;
18190;SDS011;47004;51.366;12.348;2023-10-08T03:33:04;0.10;;;0.10;;
18190;SDS011;47004;51.366;12.348;2023-10-08T03:35:12;0.10;;;0.10;;
18190;SDS011;47004;51.366;12.348;2023-10-08T03:37:14;0.10;;;0.10;;
18190;SDS011;47004;51.366;12.348;2023-10-08T03:39:20;0.10;;;0.10;;
18190;SDS011;47004;51.366;12.348;2023-10-08T03:41:24;0.07;;;0.07;;
18190;SDS011;47004;51.366;12.348;2023-10-08T03:43:29;0.10;;;0.10;;
18190;SDS011;47004;51.366;12.348;2023-10-08T03:45:47;0.10;;;0.10;;
18190;SDS011;47004;51.366;12.348;2023-10-08T03:47:54;0.10;;;0.10;;
18190;SDS011;47004;51.366;12.348;2023-10-08T03:50:06;0.47;;;0.10;;
18190;SDS011;47004;51.366;12.348;2023-10-08T03:52:14;0.10;;;0.10;;
18190;SDS011;47004;51.366;12.348;2023-10-08T03:54:16;0.10;;;0.10;;
18190;SDS011;47004;51.366;12.348;2023-10-08T03:56:19;0.10;;;0.10;;
18190;SDS011;47004;51.366;12.348;2023-10-08T03:58:21;0.27;;;0.27;;
18190;SDS011;47004;51.366;12.348;2023-10-08T04:00:30;0.20;;;0.20;;
18190;SDS011;47004;51.366;12.348;2023-10-08T04:02:32;0.20;;;0.20;;
18190;SDS011;47004;51.366;12.348;2023-10-08T04:04:39;0.40;;;0.40;;
18190;SDS011;47004;51.366;12.348;2023-10-08T04:06:50;0.53;;;0.50;;
18190;SDS011;47004;51.366;12.348;2023-10-08T04:08:56;0.40;;;0.40;;
18190;SDS011;47004;51.366;12.348;2023-10-08T04:11:12;0.50;;;0.50;;
18190;SDS011;47004;51.366;12.348;2023-10-08T04:13:30;0.50;;;0.50;;
18190;SDS011;47004;51.366;12.348;2023-10-08T04:15:34;0.50;;;0.50;;
18190;SDS011;47004;51.366;12.348;2023-10-08T04:17:40;0.50;;;0.50;;
18190;SDS011;47004;51.366;12.348;2023-10-08T04:19:44;0.53;;;0.53;;
18190;SDS011;47004;51.366;12.348;2023-10-08T04:21:47;0.70;;;0.63;;
18190;SDS011;47004;51.366;12.348;2023-10-08T04:23:54;1.17;;;0.80;;
18190;SDS011;47004;51.366;12.348;2023-10-08T04:25:59;0.77;;;0.73;;
18190;SDS011;47004;51.366;12.348;2023-10-08T04:28:01;0.67;;;0.63;;
18190;SDS011;47004;51.366;12.348;2023-10-08T04:30:03;0.90;;;0.83;;
18190;SDS011;47004;51.366;12.348;2023-10-08T04:32:10;0.70;;;0.70;;
18190;SDS011;47004;51.366;12.348;2023-10-08T04:34:21;0.77;;;0.73;;
18190;SDS011;47004;51.366;12.348;2023-10-08T04:36:23;1.37;;;1.03;;
18190;SDS011;47004;51.366;12.348;2023-10-08T04:38:25;1.57;;;1.30;;
18190;SDS011;47004;51.366;12.348;2023-10-08T04:40:26;1.63;;;1.20;;
18190;SDS011;47004;51.366;12.348;2023-10-08T04:42:35;1.47;;;1.13;;
18190;SDS011;47004;51.366;12.348;2023-10-08T04:44:37;1.40;;;1.30;;
18190;SDS011;47004;51.366;12.348;2023-10-08T04:46:40;1.90;;;1.73;;
18190;SDS011;47004;51.366;12.348;2023-10-08T04:48:52;1.67;;;1.47;;
18190;SDS011;47004;51.366;12.348;2023-10-08T04:50:53;2.03;;;1.60;;
18190;SDS011;47004;51.366;12.348;2023-10-08T04:52:59;2.87;;;1.40;;
18190;SDS011;47004;51.366;12.348;2023-10-08T04:55:08;1.70;;;1.33;;
18190;SDS011;47004;51.366;12.348;2023-10-08T04:57:20;1.37;;;0.87;;
18190;SDS011;47004;51.366;12.348;2023-10-08T04:59:27;4.03;;;1.00;;
18190;SDS011;47004;51.366;12.348;2023-10-08T05:01:33;3.00;;;1.00;;
18190;SDS011;47004;51.366;12.348;2023-10-08T05:03:38;3.97;;;0.97;;
18190;SDS011;47004;51.366;12.348;2023-10-08T05:05:54;0.77;;;0.67;;
18190;SDS011;47004;51.366;12.348;2023-10-08T05:08:07;2.80;;;0.97;;
18190;SDS011;47004;51.366;12.348;2023-10-08T05:10:25;1.57;;;0.77;;
18190;SDS011;47004;51.366;12.348;2023-10-08T05:13:00;1.70;;;0.80;;
18190;SDS011;47004;51.366;12.348;2023-10-08T05:15:17;4.50;;;0.90;;
18190;SDS011;47004;51.366;12.348;2023-10-08T05:17:37;3.20;;;0.97;;
18190;SDS011;47004;51.366;12.348;2023-10-08T05:19:58;1.87;;;0.70;;
18190;SDS011;47004;51.366;12.348;2023-10-08T05:22:19;1.80;;;0.60;;
18190;SDS011;47004;51.366;12.348;2023-10-08T05:24:44;1.90;;;0.87;;
18190;SDS011;47004;51.366;12.348;2023-10-08T05:27:06;1.40;;;0.77;;
18190;SDS011;47004;51.366;12.348;2023-10-08T05:29:22;3.87;;;0.97;;
18190;SDS011;47004;51.366;12.348;2023-10-08T05:31:51;3.27;;;1.10;;
18190;SDS011;47004;51.366;12.348;2023-10-08T05:34:13;1.83;;;0.80;;
18190;SDS011;47004;51.366;12.348;2023-10-08T05:36:33;2.47;;;0.97;;
18190;SDS011;47004;51.366;12.348;2023-10-08T05:38:36;6.63;;;0.93;;
18190;SDS011;47004;51.366;12.348;2023-10-08T05:40:59;4.17;;;1.00;;
18190;SDS011;47004;51.366;12.348;2023-10-08T05:43:28;2.47;;;0.83;;
18190;SDS011;47004;51.366;12.348;2023-10-08T05:45:49;3.47;;;0.87;;
18190;SDS011;47004;51.366;12.348;2023-10-08T05:48:14;3.60;;;1.30;;
18190;SDS011;47004;51.366;12.348;2023-10-08T05:50:18;6.03;;;1.63;;
18190;SDS011;47004;51.366;12.348;2023-10-08T05:52:39;3.17;;;1.37;;
18190;SDS011;47004;51.366;12.348;2023-10-08T05:55:01;3.90;;;0.90;;
18190;SDS011;47004;51.366;12.348;2023-10-08T05:57:32;4.43;;;0.93;;
18190;SDS011;47004;51.366;12.348;2023-10-08T05:59:39;3.40;;;1.20;;
18190;SDS011;47004;51.366;12.348;2023-10-08T06:02:12;4.30;;;0.90;;
18190;SDS011;47004;51.366;12.348;2023-10-08T06:04:29;2.50;;;1.00;;
18190;SDS011;47004;51.366;12.348;2023-10-08T06:06:53;2.97;;;0.90;;
18190;SDS011;47004;51.366;12.348;2023-10-08T06:09:12;2.07;;;0.83;;
18190;SDS011;47004;51.366;12.348;2023-10-08T06:11:22;3.53;;;1.23;;
18190;SDS011;47004;51.366;12.348;2023-10-08T06:13:37;3.17;;;1.00;;
18190;SDS011;47004;51.366;12.348;2023-10-08T06:15:46;4.00;;;1.30;;
18190;SDS011;47004;51.366;12.348;2023-10-08T06:18:07;3.03;;;0.90;;
18190;SDS011;47004;51.366;12.348;2023-10-08T06:20:10;3.90;;;1.33;;
18190;SDS011;47004;51.366;12.348;2023-10-08T06:22:16;5.33;;;1.33;;
18190;SDS011;47004;51.366;12.348;2023-10-08T06:24:19;3.83;;;1.13;;
18190;SDS011;47004;51.366;12.348;2023-10-08T06:26:21;7.07;;;1.40;;
18190;SDS011;47004;51.366;12.348;2023-10-08T06:28:25;3.50;;;1.00;;
18190;SDS011;47004;51.366;12.348;2023-10-08T06:30:28;3.53;;;1.30;;
18190;SDS011;47004;51.366;12.348;2023-10-08T06:32:29;4.90;;;1.40;;
18190;SDS011;47004;51.366;12.348;2023-10-08T06:34:31;6.67;;;1.90;;
18190;SDS011;47004;51.366;12.348;2023-10-08T06:36:34;6.03;;;2.17;;
18190;SDS011;47004;51.366;12.348;2023-10-08T06:38:35;4.30;;;2.17;;
18190;SDS011;47004;51.366;12.348;2023-10-08T06:40:38;6.07;;;2.10;;
18190;SDS011;47004;51.366;12.348;2023-10-08T06:42:44;5.27;;;2.27;;
18190;SDS011;47004;51.366;12.348;2023-10-08T06:44:46;6.60;;;2.80;;
18190;SDS011;47004;51.366;12.348;2023-10-08T06:46:48;6.47;;;2.70;;
18190;SDS011;47004;51.366;12.348;2023-10-08T06:48:52;5.17;;;2.70;;
18190;SDS011;47004;51.366;12.348;2023-10-08T06:50:55;6.40;;;3.30;;
18190;SDS011;47004;51.366;12.348;2023-10-08T06:52:59;7.17;;;3.00;;
18190;SDS011;47004;51.366;12.348;2023-10-08T06:55:06;5.87;;;2.80;;
18190;SDS011;47004;51.366;12.348;2023-10-08T06:57:11;5.53;;;2.33;;
18190;SDS011;47004;51.366;12.348;2023-10-08T06:59:14;5.73;;;1.93;;
18190;SDS011;47004;51.366;12.348;2023-10-08T07:01:17;9.17;;;2.00;;
18190;SDS011;47004;51.366;12.348;2023-10-08T07:03:21;5.90;;;1.93;;
18190;SDS011;47004;51.366;12.348;2023-10-08T07:05:24;4.10;;;1.73;;
18190;SDS011;47004;51.366;12.348;2023-10-08T07:07:29;7.60;;;2.43;;
18190;SDS011;47004;51.366;12.348;2023-10-08T07:09:33;8.57;;;1.77;;
18190;SDS011;47004;51.366;12.348;2023-10-08T07:11:36;9.80;;;1.50;;
18190;SDS011;47004;51.366;12.348;2023-10-08T07:13:39;3.47;;;1.33;;
18190;SDS011;47004;51.366;12.348;2023-10-08T07:15:43;7.70;;;1.80;;
18190;SDS011;47004;51.366;12.348;2023-10-08T07:17:45;7.07;;;2.07;;
18190;SDS011;47004;51.366;12.348;2023-10-08T07:19:51;8.77;;;1.80;;
18190;SDS011;47004;51.366;12.348;2023-10-08T07:21:53;9.17;;;2.17;;
18190;SDS011;47004;51.366;12.348;2023-10-08T07:24:03;6.53;;;1.80;;
18190;SDS011;47004;51.366;12.348;2023-10-08T07:26:11;10.70;;;1.80;;
18190;SDS011;47004;51.366;12.348;2023-10-08T07:28:13;5.60;;;1.70;;
18190;SDS011;47004;51.366;12.348;2023-10-08T07:30:15;7.03;;;1.60;;
18190;SDS011;47004;51.366;12.348;2023-10-08T07:32:26;7.20;;;1.70;;
18190;SDS011;47004;51.366;12.348;2023-10-08T07:34:30;6.70;;;1.40;;
18190;SDS011;47004;51.366;12.348;2023-10-08T07:36:33;7.80;;;1.60;;
18190;SDS011;47004;51.366;12.348;2023-10-08T07:38:35;6.47;;;1.80;;
18190;SDS011;47004;51.366;12.348;2023-10-08T07:40:37;6.20;;;1.80;;
18190;SDS011;47004;51.366;12.348;2023-10-08T07:42:40;4.70;;;1.40;;
18190;SDS011;47004;51.366;12.348;2023-10-08T07:44:43;4.83;;;1.33;;
18190;SDS011;47004;51.366;12.348;2023-10-08T07:46:51;6.43;;;1.60;;
18190;SDS011;47004;51.366;12.348;2023-10-08T07:48:55;2.43;;;1.30;;
18190;SDS011;47004;51.366;12.348;2023-10-08T07:50:58;4.93;;;1.47;;
18190;SDS011;47004;51.366;12.348;2023-10-08T07:53:00;5.40;;;1.30;;
18190;SDS011;47004;51.366;12.348;2023-10-08T07:55:05;4.97;;;1.30;;
18190;SDS011;47004;51.366;12.348;2023-10-08T07:57:08;3.50;;;1.43;;
18190;SDS011;47004;51.366;12.348;2023-10-08T07:59:10;5.00;;;1.40;;
18190;SDS011;47004;51.366;12.348;2023-10-08T08:01:14;5.07;;;1.80;;
18190;SDS011;47004;51.366;12.348;2023-10-08T08:03:19;4.30;;;1.60;;
18190;SDS011;47004;51.366;12.348;2023-10-08T08:05:22;3.80;;;1.60;;
18190;SDS011;47004;51.366;12.348;2023-10-08T08:07:25;4.00;;;1.60;;
18190;SDS011;47004;51.366;12.348;2023-10-08T08:09:27;4.33;;;1.60;;
18190;SDS011;47004;51.366;12.348;2023-10-08T08:11:30;5.37;;;1.80;;
18190;SDS011;47004;51.366;12.348;2023-10-08T08:13:37;4.90;;;1.50;;
18190;SDS011;47004;51.366;12.348;2023-10-08T08:15:43;5.50;;;1.60;;
18190;SDS011;47004;51.366;12.348;2023-10-08T08:17:51;6.00;;;1.77;;
18190;SDS011;47004;51.366;12.348;2023-10-08T08:19:52;11.23;;;1.90;;
18190;SDS011;47004;51.366;12.348;2023-10-08T08:21:55;5.40;;;1.60;;
18190;SDS011;47004;51.366;12.348;2023-10-08T08:24:03;10.70;;;2.20;;
18190;SDS011;47004;51.366;12.348;2023-10-08T08:26:05;7.63;;;1.90;;
18190;SDS011;47004;51.366;12.348;2023-10-08T08:28:11;4.43;;;1.70;;
18190;SDS011;47004;51.366;12.348;2023-10-08T08:30:17;7.97;;;1.90;;
18190;SDS011;47004;51.366;12.348;2023-10-08T08:32:21;2.57;;;1.67;;
18190;SDS011;47004;51.366;12.348;2023-10-08T08:34:24;11.40;;;2.43;;
18190;SDS011;47004;51.366;12.348;2023-10-08T08:36:26;9.03;;;2.23;;
18190;SDS011;47004;51.366;12.348;2023-10-08T08:38:29;5.50;;;2.33;;
18190;SDS011;47004;51.366;12.348;2023-10-08T08:40:32;5.03;;;2.00;;
18190;SDS011;47004;51.366;12.348;2023-10-08T08:42:34;8.27;;;2.57;;
18190;SDS011;47004;51.366;12.348;2023-10-08T08:44:37;7.43;;;2.00;;
18190;SDS011;47004;51.366;12.348;2023-10-08T08:46:45;8.23;;;2.20;;
18190;SDS011;47004;51.366;12.348;2023-10-08T08:48:50;4.47;;;2.10;;
18190;SDS011;47004;51.366;12.348;2023-10-08T08:50:53;6.00;;;2.33;;
18190;SDS011;47004;51.366;12.348;2023-10-08T08:52:56;6.00;;;2.00;;
18190;SDS011;47004;51.366;12.348;2023-10-08T08:54:59;4.17;;;2.20;;
18190;SDS011;47004;51.366;12.348;2023-10-08T08:57:04;7.60;;;2.23;;
18190;SDS011;47004;51.366;12.348;2023-10-08T08:59:13;3.97;;;1.87;;
18190;SDS011;47004;51.366;12.348;2023-10-08T09:01:26;7.20;;;2.20;;
18190;SDS011;47004;51.366;12.348;2023-10-08T09:03:44;5.57;;;1.73;;
18190;SDS011;47004;51.366;12.348;2023-10-08T09:05:49;5.03;;;1.70;;
18190;SDS011;47004;51.366;12.348;2023-10-08T09:07:52;4.80;;;1.57;;
18190;SDS011;47004;51.366;12.348;2023-10-08T09:09:56;3.30;;;1.87;;
18190;SDS011;47004;51.366;12.348;2023-10-08T09:11:58;9.43;;;2.30;;
18190;SDS011;47004;51.366;12.348;2023-10-08T09:14:01;6.60;;;2.00;;
18190;SDS011;47004;51.366;12.348;2023-10-08T09:16:06;7.67;;;2.17;;
18190;SDS011;47004;51.366;12.348;2023-10-08T09:18:09;7.50;;;1.80;;
18190;SDS011;47004;51.366;12.348;2023-10-08T09:20:10;4.67;;;2.00;;
18190;SDS011;47004;51.366;12.348;2023-10-08T09:22:14;8.10;;;2.20;;
18190;SDS011;47004;51.366;12.348;2023-10-08T09:24:19;5.27;;;2.27;;
18190;SDS011;47004;51.366;12.348;2023-10-08T09:26:22;6.70;;;2.50;;
18190;SDS011;47004;51.366;12.348;2023-10-08T09:28:25;5.97;;;2.20;;
18190;SDS011;47004;51.366;12.348;2023-10-08T09:30:27;7.30;;;2.00;;
18190;SDS011;47004;51.366;12.348;2023-10-08T09:32:30;6.40;;;2.90;;
18190;SDS011;47004;51.366;12.348;2023-10-08T09:34:33;3.87;;;2.33;;
18190;SDS011;47004;51.366;12.348;2023-10-08T09:36:38;5.17;;;2.10;;
18190;SDS011;47004;51.366;12.348;2023-10-08T09:38:43;9.40;;;2.37;;
18190;SDS011;47004;51.366;12.348;2023-10-08T09:40:45;4.67;;;2.00;;
18190;SDS011;47004;51.366;12.348;2023-10-08T09:42:48;5.73;;;2.30;;
18190;SDS011;47004;51.366;12.348;2023-10-08T09:44:50;3.87;;;2.23;;
18190;SDS011;47004;51.366;12.348;2023-10-08T09:46:54;6.47;;;2.53;;
18190;SDS011;47004;51.366;12.348;2023-10-08T09:48:59;6.10;;;2.90;;
18190;SDS011;47004;51.366;12.348;2023-10-08T09:51:01;6.63;;;3.20;;
18190;SDS011;47004;51.366;12.348;2023-10-08T09:53:10;5.67;;;3.20;;
18190;SDS011;47004;51.366;12.348;2023-10-08T09:55:18;8.37;;;3.10;;
18190;SDS011;47004;51.366;12.348;2023-10-08T09:57:20;8.47;;;3.30;;
18190;SDS011;47004;51.366;12.348;2023-10-08T09:59:26;8.57;;;3.90;;
18190;SDS011;47004;51.366;12.348;2023-10-08T10:01:28;8.20;;;3.77;;
18190;SDS011;47004;51.366;12.348;2023-10-08T10:03:33;4.50;;;2.87;;
18190;SDS011;47004;51.366;12.348;2023-10-08T10:05:36;6.90;;;3.40;;
18190;SDS011;47004;51.366;12.348;2023-10-08T10:07:38;5.70;;;3.43;;
18190;SDS011;47004;51.366;12.348;2023-10-08T10:09:44;7.10;;;3.47;;
18190;SDS011;47004;51.366;12.348;2023-10-08T10:11:49;8.80;;;3.00;;
18190;SDS011;47004;51.366;12.348;2023-10-08T10:13:57;6.33;;;3.37;;
18190;SDS011;47004;51.366;12.348;2023-10-08T10:16:01;7.97;;;3.00;;
18190;SDS011;47004;51.366;12.348;2023-10-08T10:18:09;8.77;;;3.03;;
18190;SDS011;47004;51.366;12.348;2023-10-08T10:20:16;5.80;;;2.47;;
18190;SDS011;47004;51.366;12.348;2023-10-08T10:22:26;4.80;;;2.80;;
18190;SDS011;47004;51.366;12.348;2023-10-08T10:24:32;7.63;;;2.93;;
18190;SDS011;47004;51.366;12.348;2023-10-08T10:26:35;8.33;;;3.40;;
18190;SDS011;47004;51.366;12.348;2023-10-08T10:28:46;10.63;;;3.37;;
18190;SDS011;47004;51.366;12.348;2023-10-08T10:31:26;7.30;;;3.30;;
18190;SDS011;47004;51.366;12.348;2023-10-08T10:33:31;7.20;;;3.53;;
18190;SDS011;47004;51.366;12.348;2023-10-08T10:35:35;7.10;;;2.70;;
18190;SDS011;47004;51.366;12.348;2023-10-08T10:37:40;8.23;;;3.23;;
18190;SDS011;47004;51.366;12.348;2023-10-08T10:39:52;8.00;;;3.17;;
18190;SDS011;47004;51.366;12.348;2023-10-08T10:41:56;5.50;;;3.00;;
18190;SDS011;47004;51.366;12.348;2023-10-08T10:44:02;8.77;;;3.20;;
18190;SDS011;47004;51.366;12.348;2023-10-08T10:46:10;8.83;;;3.80;;
18190;SDS011;47004;51.366;12.348;2023-10-08T10:48:31;8.50;;;3.43;;
18190;SDS011;47004;51.366;12.348;2023-10-08T10:50:34;9.20;;;4.07;;
18190;SDS011;47004;51.366;12.348;2023-10-08T10:52:48;7.30;;;3.60;;
18190;SDS011;47004;51.366;12.348;2023-10-08T10:54:53;6.17;;;3.07;;
18190;SDS011;47004;51.366;12.348;2023-10-08T10:56:59;8.93;;;3.40;;
18190;SDS011;47004;51.366;12.348;2023-10-08T10:59:06;6.23;;;3.23;;
18190;SDS011;47004;51.366;12.348;2023-10-08T11:01:18;6.87;;;2.97;;
18190;SDS011;47004;51.366;12.348;2023-10-08T11:03:24;5.07;;;2.60;;
18190;SDS011;47004;51.366;12.348;2023-10-08T11:05:25;4.67;;;2.50;;
18190;SDS011;47004;51.366;12.348;2023-10-08T11:07:29;8.13;;;2.93;;
18190;SDS011;47004;51.366;12.348;2023-10-08T11:09:33;6.13;;;2.73;;
18190;SDS011;47004;51.366;12.348;2023-10-08T11:11:38;7.17;;;3.10;;
18190;SDS011;47004;51.366;12.348;2023-10-08T11:13:44;7.83;;;2.70;;
18190;SDS011;47004;51.366;12.348;2023-10-08T11:15:53;6.97;;;2.80;;
18190;SDS011;47004;51.366;12.348;2023-10-08T11:17:56;4.53;;;2.70;;
18190;SDS011;47004;51.366;12.348;2023-10-08T11:20:00;5.17;;;2.53;;
18190;SDS011;47004;51.366;12.348;2023-10-08T11:22:07;7.03;;;3.00;;
18190;SDS011;47004;51.366;12.348;2023-10-08T11:24:26;5.60;;;2.47;;
18190;SDS011;47004;51.366;12.348;2023-10-08T11:26:34;5.50;;;3.30;;
18190;SDS011;47004;51.366;12.348;2023-10-08T11:28:39;5.30;;;3.03;;
18190;SDS011;47004;51.366;12.348;2023-10-08T11:30:43;6.37;;;3.00;;
18190;SDS011;47004;51.366;12.348;2023-10-08T11:32:48;7.30;;;3.10;;
18190;SDS011;47004;51.366;12.348;2023-10-08T11:34:53;6.37;;;3.07;;
18190;SDS011;47004;51.366;12.348;2023-10-08T11:36:56;6.17;;;2.70;;
18190;SDS011;47004;51.366;12.348;2023-10-08T11:39:08;6.37;;;2.43;;
18190;SDS011;47004;51.366;12.348;2023-10-08T11:41:12;6.57;;;2.80;;
18190;SDS011;47004;51.366;12.348;2023-10-08T11:43:22;6.80;;;2.90;;
18190;SDS011;47004;51.366;12.348;2023-10-08T11:45:24;5.63;;;2.57;;
18190;SDS011;47004;51.366;12.348;2023-10-08T11:47:38;5.07;;;2.23;;
18190;SDS011;47004;51.366;12.348;2023-10-08T11:49:43;5.97;;;2.70;;
18190;SDS011;47004;51.366;12.348;2023-10-08T11:51:50;5.50;;;2.27;;
18190;SDS011;47004;51.366;12.348;2023-10-08T11:54:01;6.63;;;2.60;;
18190;SDS011;47004;51.366;12.348;2023-10-08T11:56:05;9.50;;;2.87;;
18190;SDS011;47004;51.366;12.348;2023-10-08T11:58:13;5.37;;;2.67;;
18190;SDS011;47004;51.366;12.348;2023-10-08T12:00:20;7.53;;;2.70;;
18190;SDS011;47004;51.366;12.348;2023-10-08T12:02:25;8.13;;;2.60;;
18190;SDS011;47004;51.366;12.348;2023-10-08T12:04:27;4.27;;;2.40;;
18190;SDS011;47004;51.366;12.348;2023-10-08T12:06:31;8.73;;;2.50;;
18190;SDS011;47004;51.366;12.348;2023-10-08T12:08:33;13.57;;;2.43;;
18190;SDS011;47004;51.366;12.348;2023-10-08T12:10:39;6.10;;;2.13;;
18190;SDS011;47004;51.366;12.348;2023-10-08T12:12:43;8.40;;;2.87;;
18190;SDS011;47004;51.366;12.348;2023-10-08T12:14:48;4.83;;;2.33;;
18190;SDS011;47004;51.366;12.348;2023-10-08T12:16:50;5.70;;;2.20;;
18190;SDS011;47004;51.366;12.348;2023-10-08T12:18:52;6.83;;;2.10;;
18190;SDS011;47004;51.366;12.348;2023-10-08T12:20:58;6.40;;;2.50;;
18190;SDS011;47004;51.366;12.348;2023-10-08T12:23:03;8.33;;;2.63;;
18190;SDS011;47004;51.366;12.348;2023-10-08T12:25:06;5.90;;;2.23;;
18190;SDS011;47004;51.366;12.348;2023-10-08T12:27:08;6.37;;;2.30;;
18190;SDS011;47004;51.366;12.348;2023-10-08T12:29:12;6.87;;;2.40;;